Time;durP1;ratioP1;P1;durP2;ratioP2;P2;SDS_P1;SDS_P2;PMS_P1;PMS_P2;Temp;Humidity;BMP_temperature;BMP_pressure;BME280_temperature;BME280_humidity;BME280_pressure;Samples;Min_cycle;Max_cycle;Signal;HPM_P1;HPM_P2
2021/07/28 00:01:04;;;;;;;17.13;11.23;;;19.50;99.90;;;;;;5047509;28;20126;-72
2021/07/28 00:03:31;;;;;;;18.50;10.95;;;19.50;99.90;;;;;;5047263;28;20076;-72
2021/07/28 00:05:58;;;;;;;16.10;10.77;;;19.60;99.90;;;;;;5049976;28;20417;-73
2021/07/28 00:08:26;;;;;;;17.58;10.65;;;19.60;99.90;;;;;;5049187;28;20049;-73
2021/07/28 00:10:53;;;;;;;16.20;10.95;;;19.50;99.90;;;;;;5049785;28;20080;-73
2021/07/28 00:13:20;;;;;;;15.65;10.57;;;19.70;99.90;;;;;;5051591;28;20488;-74
2021/07/28 00:15:47;;;;;;;19.58;11.57;;;19.60;99.90;;;;;;5049976;28;20144;-74
2021/07/28 00:18:20;;;;;;;16.23;11.02;;;19.60;99.90;;;;;;5049187;28;20049;-74
2021/07/28 00:23:36;;;;;;;19.67;10.32;;;19.60;99.90;;;;;;5017996;28;20048;-74
2021/07/28 00:26:03;;;;;;;20.08;12.45;;;19.60;99.90;;;;;;5048078;28;20051;-74
2021/07/28 00:28:29;;;;;;;17.35;10.80;;;19.60;99.90;;;;;;5041921;28;20492;-74
2021/07/28 00:30:56;;;;;;;16.38;10.82;;;19.60;99.90;;;;;;5050184;28;20135;-74
2021/07/28 00:33:23;;;;;;;19.08;11.43;;;19.70;99.90;;;;;;5049051;28;20049;-74
2021/07/28 00:35:50;;;;;;;18.67;11.20;;;19.60;99.90;;;;;;5050957;28;20045;-72
2021/07/28 00:38:17;;;;;;;23.23;11.93;;;19.50;99.90;;;;;;5045589;28;20447;-73
2021/07/28 00:40:47;;;;;;;15.75;11.18;;;19.50;99.90;;;;;;5050042;28;20114;-74
2021/07/28 00:43:15;;;;;;;19.20;12.18;;;19.50;99.90;;;;;;5048215;28;20076;-74
2021/07/28 00:45:43;;;;;;;17.10;11.13;;;19.50;99.90;;;;;;5050412;28;20109;-74
2021/07/28 00:48:11;;;;;;;17.35;11.05;;;19.40;99.90;;;;;;5047832;28;20142;-74
2021/07/28 00:50:39;;;;;;;16.15;11.02;;;19.40;99.90;;;;;;5049386;28;20106;-74
2021/07/28 00:53:07;;;;;;;19.77;11.25;;;19.40;99.90;;;;;;5050762;28;20571;-73
2021/07/28 00:55:34;;;;;;;18.13;11.27;;;19.40;99.90;;;;;;5050264;28;20048;-73
2021/07/28 00:58:03;;;;;;;19.02;11.75;;;19.40;99.90;;;;;;5049707;28;20064;-74
2021/07/28 01:00:30;;;;;;;17.23;11.30;;;19.30;99.90;;;;;;5049217;28;20605;-73
2021/07/28 01:02:57;;;;;;;18.48;12.18;;;19.30;99.90;;;;;;5049650;28;20509;-73
2021/07/28 01:05:25;;;;;;;21.08;11.95;;;19.40;99.90;;;;;;5049554;28;20072;-72
2021/07/28 01:07:53;;;;;;;17.10;11.75;;;19.10;99.90;;;;;;5048067;28;20757;-72
2021/07/28 01:10:20;;;;;;;20.88;13.05;;;19.20;99.90;;;;;;5046629;28;20056;-73
2021/07/28 01:12:52;;;;;;;19.40;11.77;;;19.20;99.90;;;;;;5041058;28;20114;-73
2021/07/28 01:15:33;;;;;;;21.00;12.00;;;19.30;99.90;;;;;;5044825;28;20056;-74
2021/07/28 01:18:02;;;;;;;18.52;11.43;;;19.20;99.90;;;;;;5046531;28;20140;-74
2021/07/28 01:20:34;;;;;;;17.48;11.57;;;19.20;99.90;;;;;;5048829;28;20498;-73
2021/07/28 01:23:05;;;;;;;22.50;12.55;;;19.30;99.90;;;;;;5049729;28;20416;-74
2021/07/28 01:25:34;;;;;;;19.30;12.20;;;19.30;99.90;;;;;;5049795;28;20048;-74
2021/07/28 01:28:02;;;;;;;20.52;12.43;;;19.20;99.90;;;;;;5047546;28;20139;-74
2021/07/28 01:30:30;;;;;;;17.80;12.30;;;19.00;99.90;;;;;;5050134;28;20266;-74
2021/07/28 01:32:57;;;;;;;22.17;12.93;;;18.90;99.90;;;;;;5046112;28;20413;-74
2021/07/28 01:35:26;;;;;;;17.50;12.05;;;18.90;99.90;;;;;;5047400;28;20909;-74
2021/07/28 01:37:53;;;;;;;18.58;11.82;;;18.90;99.90;;;;;;5049894;28;20048;-74
2021/07/28 01:40:20;;;;;;;18.48;11.73;;;18.90;99.90;;;;;;5049230;28;20091;-74
2021/07/28 01:42:49;;;;;;;17.42;11.38;;;18.80;99.90;;;;;;5049090;28;20082;-75
2021/07/28 01:45:17;;;;;;;20.35;12.32;;;18.90;99.90;;;;;;5048481;28;20086;-74
2021/07/28 01:47:45;;;;;;;18.55;11.63;;;18.90;99.90;;;;;;5048658;28;20048;-75
2021/07/28 01:50:13;;;;;;;18.20;11.45;;;19.00;99.90;;;;;;5048939;28;20509;-74
2021/07/28 01:52:41;;;;;;;18.40;10.25;;;19.00;99.90;;;;;;5049135;28;20080;-74
2021/07/28 01:55:09;;;;;;;17.30;11.38;;;19.10;99.90;;;;;;5047191;28;20049;-74
2021/07/28 01:57:36;;;;;;;16.60;10.07;;;19.00;99.90;;;;;;5043111;28;20056;-74
2021/07/28 02:00:06;;;;;;;19.70;10.95;;;19.00;99.90;;;;;;5043753;28;20052;-74
2021/07/28 02:02:34;;;;;;;18.67;10.90;;;18.80;99.90;;;;;;5043878;28;20048;-74
2021/07/28 02:05:02;;;;;;;18.55;11.23;;;18.90;99.90;;;;;;5039168;28;20431;-74
2021/07/28 02:07:29;;;;;;;15.70;10.38;;;19.00;99.90;;;;;;5042769;28;20778;-73
2021/07/28 02:09:56;;;;;;;18.77;11.57;;;19.10;99.90;;;;;;5038907;28;20056;-73
2021/07/28 02:12:24;;;;;;;17.08;11.27;;;19.10;99.90;;;;;;5042068;28;20052;-73
2021/07/28 02:14:50;;;;;;;18.15;11.85;;;19.10;99.90;;;;;;5044302;28;20060;-73
2021/07/28 02:17:19;;;;;;;20.33;11.43;;;19.10;99.90;;;;;;5038917;28;20076;-74
2021/07/28 02:19:46;;;;;;;15.90;10.98;;;19.00;99.90;;;;;;5039109;28;20048;-72
2021/07/28 02:22:13;;;;;;;20.15;11.90;;;19.10;99.90;;;;;;5041020;28;20040;-73
2021/07/28 02:24:41;;;;;;;17.55;11.25;;;19.10;99.90;;;;;;5048658;28;20048;-73
2021/07/28 02:27:08;;;;;;;15.65;11.10;;;19.10;99.90;;;;;;5047878;28;20130;-73
2021/07/28 02:29:36;;;;;;;15.68;10.82;;;19.10;99.90;;;;;;5047080;28;20076;-73
2021/07/28 02:32:04;;;;;;;15.40;10.23;;;18.90;99.90;;;;;;5047996;28;20091;-72
2021/07/28 02:34:33;;;;;;;18.20;11.27;;;19.00;99.90;;;;;;5048140;28;20048;-73
2021/07/28 02:37:00;;;;;;;19.63;11.57;;;18.90;99.90;;;;;;5049453;28;20501;-73
2021/07/28 02:39:27;;;;;;;18.00;10.93;;;18.80;99.90;;;;;;5047588;28;20109;-73
2021/07/28 02:41:54;;;;;;;15.73;10.82;;;18.70;99.90;;;;;;5047780;28;20114;-73
2021/07/28 02:44:21;;;;;;;15.60;10.77;;;18.80;99.90;;;;;;5045625;28;20532;-73
2021/07/28 02:46:47;;;;;;;16.08;10.07;;;18.80;99.90;;;;;;5041703;28;20110;-73
2021/07/28 02:49:15;;;;;;;16.80;10.95;;;18.90;99.90;;;;;;5038328;28;20494;-74
2021/07/28 02:51:43;;;;;;;17.73;10.98;;;18.90;99.90;;;;;;5039944;28;20293;-74
2021/07/28 02:54:10;;;;;;;17.42;10.77;;;19.00;99.90;;;;;;5040864;28;20166;-74
2021/07/28 02:56:39;;;;;;;14.30;10.20;;;19.00;99.90;;;;;;5041658;28;20048;-75
2021/07/28 02:59:06;;;;;;;16.33;11.27;;;18.90;99.90;;;;;;5044498;28;20524;-75
2021/07/28 03:01:33;;;;;;;18.55;10.40;;;18.90;99.90;;;;;;5043576;28;20052;-74
2021/07/28 03:04:00;;;;;;;15.73;10.65;;;19.00;99.90;;;;;;5043752;28;21310;-74
2021/07/28 03:06:27;;;;;;;17.38;11.15;;;19.00;99.90;;;;;;5041718;28;20098;-75
2021/07/28 03:08:55;;;;;;;17.73;11.15;;;18.90;99.90;;;;;;5038966;28;20048;-75
2021/07/28 03:11:22;;;;;;;15.23;10.38;;;18.90;99.90;;;;;;5039298;28;20080;-74
2021/07/28 03:13:49;;;;;;;16.92;11.05;;;18.80;99.90;;;;;;5037410;28;21198;-71
2021/07/28 03:16:16;;;;;;;18.92;12.10;;;18.90;99.90;;;;;;5038112;28;20136;-74
2021/07/28 03:18:43;;;;;;;20.40;12.25;;;18.80;99.90;;;;;;5036272;28;20041;-73
2021/07/28 03:21:11;;;;;;;17.88;11.63;;;18.80;99.90;;;;;;5037025;28;20049;-73
2021/07/28 03:23:38;;;;;;;18.85;12.55;;;18.80;99.90;;;;;;5039962;28;20093;-75
2021/07/28 03:26:06;;;;;;;18.00;12.32;;;18.70;99.90;;;;;;5042027;28;20110;-73
2021/07/28 03:28:33;;;;;;;18.83;12.75;;;18.80;99.90;;;;;;5040333;28;20048;-74
2021/07/28 03:31:00;;;;;;;19.73;12.55;;;18.80;99.90;;;;;;5042021;28;20129;-73
2021/07/28 03:33:27;;;;;;;20.23;12.93;;;18.70;99.90;;;;;;5040810;28;20783;-72
2021/07/28 03:35:54;;;;;;;20.30;13.27;;;18.80;99.90;;;;;;5042920;28;20110;-74
2021/07/28 03:38:21;;;;;;;19.92;12.05;;;18.60;99.90;;;;;;5039130;28;20102;-74
2021/07/28 03:40:49;;;;;;;17.02;12.30;;;18.80;99.90;;;;;;5041454;28;20084;-73
2021/07/28 03:43:17;;;;;;;19.50;13.02;;;18.70;99.90;;;;;;5039530;28;20040;-73
2021/07/28 03:45:44;;;;;;;22.13;12.88;;;18.60;99.90;;;;;;5040685;28;20052;-73
2021/07/28 03:48:11;;;;;;;20.70;12.48;;;18.50;99.90;;;;;;5039317;28;20758;-73
2021/07/28 03:50:38;;;;;;;21.85;11.98;;;18.60;99.90;;;;;;5041677;28;20048;-73
2021/07/28 03:53:06;;;;;;;17.00;11.60;;;18.50;99.90;;;;;;5040968;28;20352;-73
2021/07/28 03:55:33;;;;;;;19.10;12.98;;;18.60;99.90;;;;;;5041435;28;20052;-72
2021/07/28 03:58:00;;;;;;;19.88;12.18;;;18.60;99.90;;;;;;5040597;28;20623;-73
2021/07/28 04:00:28;;;;;;;21.35;12.25;;;18.60;99.90;;;;;;5041036;28;20150;-72
2021/07/28 04:02:55;;;;;;;17.88;11.68;;;18.60;99.90;;;;;;5040423;28;20056;-73
2021/07/28 04:05:22;;;;;;;18.33;11.55;;;18.60;99.90;;;;;;5040852;28;20123;-73
2021/07/28 04:07:55;;;;;;;18.05;12.48;;;18.50;99.90;;;;;;5040194;28;20076;-72
2021/07/28 04:10:22;;;;;;;20.58;12.43;;;18.50;99.90;;;;;;5041147;28;20049;-72
2021/07/28 04:12:49;;;;;;;21.50;13.45;;;18.60;99.90;;;;;;5039711;28;20056;-72
2021/07/28 04:15:17;;;;;;;23.80;13.05;;;18.50;99.90;;;;;;5039427;28;21050;-73
2021/07/28 04:17:45;;;;;;;23.15;13.82;;;18.50;99.90;;;;;;5039990;28;20145;-73
2021/07/28 04:20:13;;;;;;;21.05;13.50;;;18.40;99.90;;;;;;5039934;28;20057;-72
2021/07/28 04:22:40;;;;;;;19.42;12.50;;;18.40;99.90;;;;;;5039496;28;20040;-73
2021/07/28 04:25:08;;;;;;;21.50;13.52;;;18.40;99.90;;;;;;5039751;28;20048;-73
2021/07/28 04:27:35;;;;;;;18.27;11.95;;;18.30;99.90;;;;;;5037062;28;20060;-72
2021/07/28 04:30:04;;;;;;;21.13;12.85;;;18.30;99.90;;;;;;5040247;28;20056;-74
2021/07/28 04:32:31;;;;;;;19.88;12.35;;;18.50;99.90;;;;;;5042608;28;20052;-74
2021/07/28 04:35:00;;;;;;;17.70;11.05;;;18.40;99.90;;;;;;5043452;28;20052;-74
2021/07/28 04:37:27;;;;;;;16.40;11.80;;;18.40;99.90;;;;;;5041101;28;20084;-73
2021/07/28 04:39:55;;;;;;;19.48;11.55;;;18.50;99.90;;;;;;5043169;28;20094;-73
2021/07/28 04:42:22;;;;;;;22.30;11.35;;;18.50;99.90;;;;;;5044452;28;20505;-73
2021/07/28 04:44:49;;;;;;;17.95;11.77;;;18.50;99.90;;;;;;5045562;28;20080;-73
2021/07/28 04:47:16;;;;;;;16.52;10.90;;;18.60;99.90;;;;;;5043147;28;20045;-73
2021/07/28 04:49:43;;;;;;;17.70;11.02;;;18.50;99.90;;;;;;5036145;28;20072;-73
2021/07/28 04:52:12;;;;;;;18.40;11.95;;;18.50;99.90;;;;;;5036813;28;20053;-74
2021/07/28 04:54:39;;;;;;;17.55;11.05;;;18.50;99.90;;;;;;5037556;28;20454;-74
2021/07/28 04:57:07;;;;;;;19.55;12.32;;;18.50;99.90;;;;;;5037872;28;20080;-73
2021/07/28 04:59:34;;;;;;;19.45;12.73;;;18.50;99.90;;;;;;5038081;28;20045;-74
2021/07/28 05:02:01;;;;;;;22.13;12.82;;;18.50;99.90;;;;;;5039601;28;20116;-74
2021/07/28 05:04:28;;;;;;;19.42;12.55;;;18.40;99.90;;;;;;5041492;28;20048;-74
2021/07/28 05:06:55;;;;;;;20.35;13.05;;;18.50;99.90;;;;;;5039487;28;20162;-75
2021/07/28 05:09:23;;;;;;;20.08;12.52;;;18.50;99.90;;;;;;5037826;28;20084;-74
2021/07/28 05:11:50;;;;;;;17.02;11.15;;;18.40;99.90;;;;;;5039955;28;20432;-78
2021/07/28 05:14:18;;;;;;;19.70;12.65;;;18.50;99.90;;;;;;5040976;28;20259;-74
2021/07/28 05:16:45;;;;;;;18.92;11.85;;;18.40;99.90;;;;;;5040859;28;20075;-74
2021/07/28 05:19:12;;;;;;;21.17;12.55;;;18.50;99.90;;;;;;5036729;28;20520;-73
2021/07/28 05:21:39;;;;;;;17.75;11.25;;;18.50;99.90;;;;;;5036693;28;20589;-74
2021/07/28 05:24:06;;;;;;;17.52;12.18;;;18.50;99.90;;;;;;5044021;28;20055;-73
2021/07/28 05:26:35;;;;;;;18.10;11.63;;;18.50;99.90;;;;;;5046036;28;20067;-73
2021/07/28 05:29:02;;;;;;;17.05;11.57;;;18.70;99.90;;;;;;5044985;28;20394;-73
2021/07/28 05:31:29;;;;;;;16.33;11.00;;;18.70;99.90;;;;;;5040320;28;20495;-71
2021/07/28 05:33:56;;;;;;;17.63;11.75;;;18.60;99.90;;;;;;5043529;28;20045;-72
2021/07/28 05:36:23;;;;;;;17.08;11.68;;;18.70;99.90;;;;;;5045252;28;20044;-72
2021/07/28 05:38:50;;;;;;;18.13;11.10;;;18.70;99.90;;;;;;5044582;28;20537;-76
2021/07/28 05:41:17;;;;;;;15.07;11.25;;;18.90;99.90;;;;;;5044954;28;20059;-75
2021/07/28 05:43:46;;;;;;;16.00;10.85;;;18.80;99.90;;;;;;5044197;28;20047;-73
2021/07/28 05:46:13;;;;;;;17.73;11.90;;;18.80;99.90;;;;;;5044377;28;20052;-73
2021/07/28 05:48:40;;;;;;;15.60;10.35;;;18.90;99.90;;;;;;5042191;28;20125;-74
2021/07/28 05:51:07;;;;;;;23.95;10.73;;;18.90;99.90;;;;;;5043588;28;20048;-72
2021/07/28 05:53:36;;;;;;;18.25;10.52;;;18.80;99.90;;;;;;5043646;28;20078;-76
2021/07/28 05:56:03;;;;;;;17.45;9.90;;;18.80;99.90;;;;;;5037983;28;20127;-75
2021/07/28 05:58:30;;;;;;;14.63;9.52;;;18.90;99.90;;;;;;5035795;28;20094;-74
2021/07/28 06:00:59;;;;;;;15.00;9.95;;;18.90;99.90;;;;;;5043476;28;20048;-75
2021/07/28 06:03:26;;;;;;;13.93;8.93;;;19.00;99.90;;;;;;5042934;28;20040;-74
2021/07/28 06:05:59;;;;;;;12.00;8.32;;;18.90;99.90;;;;;;5044016;28;20067;-75
2021/07/28 06:08:26;;;;;;;13.30;8.07;;;19.00;99.90;;;;;;5041457;28;20110;-74
2021/07/28 06:10:53;;;;;;;15.00;8.73;;;19.10;99.90;;;;;;5041715;28;20471;-73
2021/07/28 06:13:20;;;;;;;14.57;8.60;;;19.30;99.90;;;;;;5039991;28;20047;-73
2021/07/28 06:15:48;;;;;;;12.48;7.35;;;19.40;99.90;;;;;;5040333;28;20438;-73
2021/07/28 06:18:20;;;;;;;12.15;7.07;;;19.60;99.90;;;;;;5042502;28;20226;-74
2021/07/28 06:20:47;;;;;;;10.57;6.95;;;19.60;99.90;;;;;;5041068;28;20040;-73
2021/07/28 06:23:14;;;;;;;12.05;7.53;;;19.70;99.90;;;;;;5037888;28;20048;-73
2021/07/28 06:25:41;;;;;;;12.35;6.47;;;19.60;99.90;;;;;;5037803;28;20142;-74
2021/07/28 06:28:08;;;;;;;11.65;7.40;;;19.60;99.90;;;;;;5037373;28;20048;-73
2021/07/28 06:30:36;;;;;;;10.52;6.82;;;19.60;99.90;;;;;;5040232;28;20059;-72
2021/07/28 06:33:04;;;;;;;9.73;5.93;;;19.70;99.90;;;;;;5041600;28;20048;-73
2021/07/28 06:35:32;;;;;;;9.93;6.20;;;20.00;99.90;;;;;;5040660;28;20052;-69
2021/07/28 06:37:59;;;;;;;10.02;6.30;;;20.00;99.90;;;;;;5038918;28;20053;-74
2021/07/28 06:40:26;;;;;;;11.65;6.70;;;19.90;99.90;;;;;;5042639;28;20090;-74
2021/07/28 06:42:53;;;;;;;8.85;5.60;;;20.00;99.90;;;;;;5042151;28;20535;-73
2021/07/28 06:45:20;;;;;;;10.52;6.20;;;20.00;99.90;;;;;;5043426;28;20062;-73
2021/07/28 06:47:47;;;;;;;10.23;5.97;;;20.10;99.90;;;;;;5042406;28;20463;-73
2021/07/28 06:50:15;;;;;;;10.32;5.55;;;20.30;99.90;;;;;;5043461;28;21121;-74
2021/07/28 06:52:43;;;;;;;9.05;5.82;;;20.70;99.90;;;;;;5047084;28;20040;-73
2021/07/28 06:55:11;;;;;;;10.85;6.45;;;20.90;99.90;;;;;;5049807;28;20121;-73
2021/07/28 06:57:39;;;;;;;11.02;6.10;;;20.80;99.90;;;;;;5046742;28;20098;-74
2021/07/28 07:00:07;;;;;;;9.52;6.22;;;20.90;99.90;;;;;;5049420;28;20052;-73
2021/07/28 07:02:34;;;;;;;9.55;6.30;;;20.70;99.90;;;;;;5048549;28;20048;-73
2021/07/28 07:05:01;;;;;;;10.77;6.10;;;20.90;99.90;;;;;;5050845;28;20040;-74
2021/07/28 07:07:29;;;;;;;12.05;5.97;;;21.00;99.90;;;;;;5053260;28;20802;-73
2021/07/28 07:09:57;;;;;;;11.93;5.93;;;21.00;99.90;;;;;;5051645;28;20399;-73
2021/07/28 07:12:25;;;;;;;10.00;6.40;;;21.10;99.90;;;;;;5047883;28;20045;-74
2021/07/28 07:14:52;;;;;;;9.90;6.13;;;21.20;99.90;;;;;;5048110;28;20052;-73
2021/07/28 07:17:19;;;;;;;8.93;5.43;;;21.00;99.90;;;;;;5050601;28;20516;-73
2021/07/28 07:19:46;;;;;;;14.50;7.15;;;21.20;99.90;;;;;;5053071;28;20048;-74
2021/07/28 07:22:13;;;;;;;11.30;5.97;;;20.90;99.90;;;;;;5052785;28;20045;-74
2021/07/28 07:24:41;;;;;;;10.00;5.70;;;20.90;99.90;;;;;;5052881;28;20056;-73
2021/07/28 07:27:10;;;;;;;10.18;6.35;;;20.90;99.90;;;;;;5054333;28;20132;-73
2021/07/28 07:29:37;;;;;;;10.38;5.78;;;21.10;99.90;;;;;;5050084;28;20413;-73
2021/07/28 07:32:04;;;;;;;10.57;6.20;;;20.90;99.90;;;;;;5048432;28;20526;-73
2021/07/28 07:34:32;;;;;;;8.05;5.28;;;21.00;99.90;;;;;;5052708;28;20052;-73
2021/07/28 07:36:59;;;;;;;10.55;5.30;;;21.20;99.90;;;;;;5053366;28;20048;-74
2021/07/28 07:39:26;;;;;;;8.35;5.28;;;21.50;99.90;;;;;;5051311;28;20535;-73
2021/07/28 07:41:53;;;;;;;8.15;4.95;;;21.60;99.90;;;;;;5052738;28;20052;-74
2021/07/28 07:44:22;;;;;;;11.38;6.15;;;21.80;99.90;;;;;;5052433;28;20056;-73
2021/07/28 07:46:49;;;;;;;10.23;5.60;;;21.70;99.90;;;;;;5051248;28;20114;-73
2021/07/28 07:49:16;;;;;;;8.43;5.18;;;21.30;99.90;;;;;;5050162;28;20470;-73
2021/07/28 07:51:43;;;;;;;9.50;5.03;;;21.10;99.90;;;;;;5050292;28;20066;-73
2021/07/28 07:54:11;;;;;;;9.05;5.05;;;21.20;99.90;;;;;;5050536;28;20049;-74
2021/07/28 07:56:38;;;;;;;8.20;4.43;;;21.50;99.90;;;;;;5052120;28;20423;-74
2021/07/28 07:59:05;;;;;;;10.90;5.38;;;21.40;99.90;;;;;;5052258;28;20040;-73
2021/07/28 08:01:33;;;;;;;8.25;4.30;;;21.30;99.90;;;;;;5051638;28;20665;-73
2021/07/28 08:04:00;;;;;;;10.48;4.90;;;21.40;99.90;;;;;;5052005;28;20114;-73
2021/07/28 08:06:27;;;;;;;7.30;4.47;;;21.40;99.90;;;;;;5052391;28;20044;-73
2021/07/28 08:08:54;;;;;;;11.05;5.07;;;21.60;99.90;;;;;;5051160;28;20045;-74
2021/07/28 08:11:21;;;;;;;8.70;4.70;;;21.30;99.90;;;;;;5051379;28;20101;-74
2021/07/28 08:13:49;;;;;;;8.50;4.80;;;21.50;99.90;;;;;;5051466;28;20040;-74
2021/07/28 08:16:18;;;;;;;10.30;5.13;;;21.80;99.90;;;;;;5051070;28;20135;-74
2021/07/28 08:18:47;;;;;;;7.55;4.97;;;21.70;99.90;;;;;;5050079;28;20302;-74
2021/07/28 08:21:15;;;;;;;8.80;4.85;;;22.00;99.90;;;;;;5045163;28;20189;-74
2021/07/28 08:23:45;;;;;;;8.40;4.68;;;21.90;99.90;;;;;;5048571;28;20413;-74
2021/07/28 08:26:13;;;;;;;9.00;4.82;;;22.10;99.90;;;;;;5050666;28;20048;-74
2021/07/28 08:28:40;;;;;;;8.88;4.50;;;22.20;99.90;;;;;;5051102;28;20055;-74
2021/07/28 08:31:07;;;;;;;7.43;4.43;;;22.20;99.90;;;;;;5051290;28;20059;-74
2021/07/28 08:33:35;;;;;;;11.85;4.70;;;22.30;99.90;;;;;;5050455;28;20049;-74
2021/07/28 08:36:04;;;;;;;9.38;4.97;;;22.50;99.90;;;;;;5051555;28;20110;-74
2021/07/28 08:38:31;;;;;;;8.00;4.72;;;22.30;99.90;;;;;;5051287;28;20107;-74
2021/07/28 08:41:01;;;;;;;7.68;4.55;;;22.10;99.90;;;;;;5052648;28;20052;-74
2021/07/28 08:43:29;;;;;;;9.95;4.60;;;22.30;99.90;;;;;;5051808;28;20451;-73
2021/07/28 08:45:59;;;;;;;11.35;5.72;;;22.00;99.90;;;;;;5053094;28;20087;-73
2021/07/28 08:48:27;;;;;;;7.00;4.07;;;22.20;99.90;;;;;;5051341;28;20097;-74
2021/07/28 08:50:55;;;;;;;8.95;4.18;;;22.10;99.90;;;;;;5051884;28;20048;-74
2021/07/28 08:53:23;;;;;;;8.88;4.68;;;22.00;99.90;;;;;;5050850;28;20072;-74
2021/07/28 08:55:53;;;;;;;10.98;5.18;;;22.00;99.90;;;;;;5052013;28;20421;-74
2021/07/28 08:58:22;;;;;;;9.50;4.25;;;22.00;99.90;;;;;;5052057;28;20044;-74
2021/07/28 09:00:50;;;;;;;9.05;4.78;;;21.70;99.90;;;;;;5052431;28;20122;-73
2021/07/28 09:03:18;;;;;;;7.78;4.75;;;21.90;99.90;;;;;;5051307;28;20048;-73
2021/07/28 09:05:47;;;;;;;8.45;4.53;;;22.00;99.90;;;;;;5051602;28;20409;-73
2021/07/28 09:08:24;;;;;;;8.77;4.68;;;21.90;99.90;;;;;;5050036;28;20134;-73
2021/07/28 09:10:51;;;;;;;10.18;4.65;;;21.90;99.90;;;;;;5054127;28;20056;-73
2021/07/28 09:13:30;;;;;;;8.45;3.80;;;21.90;99.90;;;;;;5050421;28;20459;-74
2021/07/28 09:15:59;;;;;;;7.82;4.13;;;22.00;99.90;;;;;;5052217;28;20102;-73
2021/07/28 09:18:35;;;;;;;8.02;4.72;;;21.90;99.90;;;;;;5053454;28;20131;-74
2021/07/28 09:21:04;;;;;;;9.27;4.07;;;21.80;99.90;;;;;;5053462;28;20048;-74
2021/07/28 09:23:38;;;;;;;8.35;4.40;;;22.00;99.90;;;;;;5053079;28;20052;-74
2021/07/28 09:26:31;;;;;;;9.15;4.35;;;21.90;99.90;;;;;;5053172;28;20064;-74
2021/07/28 09:29:03;;;;;;;7.13;4.18;;;22.00;99.90;;;;;;5053965;28;20359;-74
2021/07/28 09:31:34;;;;;;;10.02;4.05;;;22.00;99.90;;;;;;5052337;28;20052;-74
2021/07/28 09:34:32;;;;;;;7.05;4.20;;;22.00;99.90;;;;;;5052314;28;20505;-74
2021/07/28 09:36:59;;;;;;;;;;;21.90;99.90;;;;;;5050134;28;20059;-75
2021/07/28 09:39:28;;;;;;;8.32;4.93;;;22.00;99.90;;;;;;5048651;28;19928;-74
2021/07/28 09:41:56;;;;;;;8.38;4.20;;;22.10;99.90;;;;;;5052192;28;20707;-74
2021/07/28 09:44:26;;;;;;;8.13;4.53;;;22.00;99.90;;;;;;5050956;28;20566;-75
2021/07/28 09:47:11;;;;;;;9.00;5.65;;;22.10;99.90;;;;;;5043418;28;20547;-74
2021/07/28 09:49:39;;;;;;;9.10;4.78;;;22.00;99.90;;;;;;5048441;28;20052;-74
2021/07/28 09:52:21;;;;;;;9.18;4.50;;;22.10;99.90;;;;;;5048865;28;20135;-74
2021/07/28 09:54:51;;;;;;;9.50;4.60;;;21.80;99.90;;;;;;5049575;28;20574;-74
2021/07/28 09:57:21;;;;;;;8.07;4.43;;;21.80;99.90;;;;;;5050662;28;21229;-74
2021/07/28 09:59:53;;;;;;;7.22;3.95;;;21.80;99.90;;;;;;5049203;28;20135;-74
2021/07/28 10:02:22;;;;;;;9.82;4.25;;;21.70;99.90;;;;;;5049366;28;20060;-73
2021/07/28 10:04:51;;;;;;;9.73;4.90;;;22.00;99.90;;;;;;5049124;28;20121;-74
2021/07/28 10:07:19;;;;;;;8.35;4.57;;;21.90;99.90;;;;;;5048301;28;20059;-74
2021/07/28 10:09:56;;;;;;;9.25;4.80;;;21.90;99.90;;;;;;5049526;28;20521;-73
2021/07/28 10:12:25;;;;;;;7.95;4.57;;;21.90;99.90;;;;;;5050080;28;20058;-75
2021/07/28 10:14:54;;;;;;;10.70;4.85;;;21.70;99.90;;;;;;5049001;28;20053;-73
2021/07/28 10:17:22;;;;;;;8.77;4.43;;;21.60;99.90;;;;;;5050675;28;20055;-74
2021/07/28 10:19:50;;;;;;;9.70;5.05;;;21.60;99.90;;;;;;5052052;28;20106;-74
2021/07/28 10:22:17;;;;;;;9.00;4.65;;;21.50;99.90;;;;;;5051492;28;20059;-74
2021/07/28 10:24:46;;;;;;;10.20;4.28;;;21.60;99.90;;;;;;5052900;28;20505;-73
2021/07/28 10:27:15;;;;;;;8.82;4.95;;;21.60;99.90;;;;;;5052761;28;20102;-73
2021/07/28 10:29:43;;;;;;;10.30;4.88;;;21.70;99.90;;;;;;5047572;28;20045;-73
2021/07/28 10:32:28;;;;;;;9.52;4.97;;;21.80;99.90;;;;;;5046656;28;20173;-75
2021/07/28 10:35:25;;;;;;;8.27;4.53;;;21.90;99.90;;;;;;5041365;28;20517;-74
2021/07/28 10:37:53;;;;;;;7.93;4.38;;;21.90;99.90;;;;;;5042517;28;20056;-75
2021/07/28 10:40:50;;;;;;;6.93;4.35;;;22.00;99.90;;;;;;5018731;28;20071;-74
2021/07/28 10:43:18;;;;;;;7.35;4.35;;;22.10;99.90;;;;;;5041900;28;20041;-76
2021/07/28 10:45:56;;;;;;;7.93;4.50;;;22.40;99.90;;;;;;5050664;28;20049;-75
2021/07/28 10:48:51;;;;;;;8.07;4.90;;;22.10;99.90;;;;;;5048704;28;20143;-75
2021/07/28 10:51:49;;;;;;;8.85;4.90;;;22.40;99.90;;;;;;5049749;28;20056;-74
2021/07/28 10:54:16;;;;;;;10.57;4.28;;;22.60;99.90;;;;;;5042057;28;20106;-74
2021/07/28 10:57:08;;;;;;;7.00;4.35;;;22.50;99.90;;;;;;5049425;28;20508;-74
2021/07/28 10:59:42;;;;;;;9.75;4.93;;;22.10;99.90;;;;;;5037188;28;20044;-75
2021/07/28 11:02:10;;;;;;;17.83;5.57;;;22.60;99.90;;;;;;5048418;28;20710;-75
2021/07/28 11:04:37;;;;;;;8.65;4.25;;;23.00;99.90;;;;;;5049108;28;20041;-75
2021/07/28 11:07:04;;;;;;;7.13;4.25;;;23.20;99.90;;;;;;5049193;28;20139;-75
2021/07/28 11:09:31;;;;;;;7.88;4.57;;;23.70;99.90;;;;;;5047826;28;20099;-75
2021/07/28 11:11:59;;;;;;;7.28;4.43;;;24.50;99.90;;;;;;5048696;28;20139;-75
2021/07/28 11:14:27;;;;;;;7.97;4.43;;;25.10;99.90;;;;;;5047939;28;20052;-75
2021/07/28 11:16:56;;;;;;;8.98;4.13;;;25.20;99.90;;;;;;5048706;28;20088;-75
2021/07/28 11:19:23;;;;;;;8.93;4.60;;;25.30;99.90;;;;;;5048331;28;20279;-75
2021/07/28 11:21:50;;;;;;;8.90;5.13;;;24.80;99.90;;;;;;5049673;28;20053;-75
2021/07/28 11:24:18;;;;;;;9.45;4.57;;;24.20;99.90;;;;;;5047094;28;20905;-75
2021/07/28 11:26:46;;;;;;;8.00;4.38;;;23.90;99.90;;;;;;5050378;28;20468;-75
2021/07/28 11:29:17;;;;;;;6.97;4.00;;;23.40;99.90;;;;;;5048420;28;20088;-75
2021/07/28 11:31:46;;;;;;;7.88;4.63;;;23.10;99.90;;;;;;5049491;28;20048;-75
2021/07/28 11:34:19;;;;;;;6.25;3.70;;;23.50;99.90;;;;;;5048384;28;20492;-75
2021/07/28 11:36:56;;;;;;;10.10;4.57;;;23.50;99.90;;;;;;5038349;28;20053;-75
2021/07/28 11:39:23;;;;;;;6.72;4.43;;;23.50;99.90;;;;;;5041364;28;20057;-75
2021/07/28 11:42:00;;;;;;;9.48;4.47;;;23.40;99.90;;;;;;5045444;28;20270;-74
2021/07/28 11:44:27;;;;;;;8.07;4.85;;;23.50;99.90;;;;;;5046995;28;20090;-75
2021/07/28 11:46:56;;;;;;;9.27;4.38;;;23.80;99.90;;;;;;5051165;28;20048;-74
2021/07/28 11:49:31;;;;;;;7.07;3.92;;;24.30;99.90;;;;;;5046609;28;20044;-74
2021/07/28 11:52:03;;;;;;;7.68;4.20;;;24.10;99.90;;;;;;5045804;28;20091;-76
2021/07/28 11:54:34;;;;;;;8.40;4.70;;;23.50;99.90;;;;;;5046692;28;20094;-75
2021/07/28 11:57:01;;;;;;;9.40;4.30;;;23.90;99.90;;;;;;5046518;28;20040;-75
2021/07/28 11:59:31;;;;;;;8.45;4.50;;;24.20;99.90;;;;;;5046305;28;20045;-74
2021/07/28 12:01:59;;;;;;;7.00;4.05;;;24.50;99.90;;;;;;5046011;28;20428;-75
2021/07/28 12:04:29;;;;;;;7.25;4.63;;;24.30;99.90;;;;;;5045625;28;20094;-75
2021/07/28 12:07:00;;;;;;;7.57;4.57;;;24.00;99.90;;;;;;5051361;28;20075;-73
2021/07/28 12:09:28;;;;;;;7.35;4.03;;;24.10;99.90;;;;;;5052137;28;20049;-75
2021/07/28 12:11:57;;;;;;;8.30;4.45;;;24.00;99.90;;;;;;5051112;28;20494;-74
2021/07/28 12:14:39;;;;;;;8.48;4.82;;;23.70;99.90;;;;;;5049519;28;20479;-75
2021/07/28 12:17:21;;;;;;;8.70;4.50;;;23.60;99.90;;;;;;5049195;28;20052;-75
2021/07/28 12:19:57;;;;;;;7.60;4.40;;;23.90;99.90;;;;;;5048170;28;20126;-74
2021/07/28 12:22:29;;;;;;;11.05;5.22;;;24.00;99.90;;;;;;5048434;28;20067;-74
2021/07/28 12:25:13;;;;;;;9.18;4.45;;;23.90;99.90;;;;;;5048789;28;20106;-74
2021/07/28 12:28:01;;;;;;;8.57;5.05;;;23.80;99.90;;;;;;5049885;28;20056;-74
2021/07/28 12:30:30;;;;;;;9.55;4.65;;;23.90;99.90;;;;;;5049028;28;20048;-74
2021/07/28 12:33:03;;;;;;;9.63;4.70;;;23.90;99.90;;;;;;5049040;28;20531;-74
2021/07/28 12:35:37;;;;;;;8.82;4.60;;;23.70;99.90;;;;;;5049273;28;20487;-74
2021/07/28 12:38:17;;;;;;;9.38;4.32;;;23.60;99.90;;;;;;5048939;28;20098;-74
2021/07/28 12:40:47;;;;;;;10.27;3.85;;;23.70;99.90;;;;;;5047815;28;20060;-75
2021/07/28 12:43:14;;;;;;;8.43;4.15;;;23.70;99.90;;;;;;5048311;28;20054;-75
2021/07/28 12:45:42;;;;;;;7.70;3.60;;;23.60;99.90;;;;;;5048063;28;20473;-74
2021/07/28 12:48:10;;;;;;;8.18;4.30;;;23.30;99.90;;;;;;5046138;28;20056;-75